Time;durP1;ratioP1;P1;durP2;ratioP2;P2;SDS_P1;SDS_P2;PMS_P1;PMS_P2;Temp;Humidity;BMP_temperature;BMP_pressure;BME280_temperature;BME280_humidity;BME280_pressure;Samples;Min_cycle;Max_cycle;Signal;HPM_P1;HPM_P2
2024/03/06 06:11:18;;;;;;;;;;;;;;;7.22;100.00;99991.88;5152327;23;20284;-86
2024/03/06 06:13:44;;;;;;;;;;;;;;;7.21;100.00;99990.13;4994280;28;19930;-86
2024/03/06 06:16:09;;;;;;;;;;;;;;;7.20;100.00;99999.81;4994352;28;19925;-87
2024/03/06 06:18:34;;;;;;;;;;;;;;;7.22;100.00;99994.50;4994083;28;19953;-87
2024/03/06 06:21:00;;;;;;;;;;;;;;;7.21;100.00;100004.19;4994186;28;19925;-86
2024/03/06 06:23:25;;;;;;;;;;;;;;;7.23;100.00;100006.78;4976685;28;19918;-86
2024/03/06 06:25:51;;;;;;;;;;;;;;;7.21;100.00;100005.94;4992832;28;19917;-86
2024/03/06 06:28:16;;;;;;;;;;;;;;;7.18;100.00;100008.66;4994190;28;19922;-86
2024/03/06 06:30:45;;;;;;;;;;;;;;;7.19;100.00;100010.41;4993965;28;19928;-86
2024/03/06 06:33:10;;;;;;;;;;;;;;;7.21;100.00;100014.75;4993757;28;19918;-86
2024/03/06 06:35:35;;;;;;;;;;;;;;;7.19;100.00;100008.63;4993885;28;20024;-87
2024/03/06 06:38:01;;;;;;;;;;;;;;;7.25;100.00;100011.09;4993830;28;19924;-86
2024/03/06 06:40:27;;;;;;;;;;;;;;;7.20;100.00;100014.78;4992506;28;19960;-87
2024/03/06 06:42:53;;;;;;;;;;;;;;;7.23;100.00;100019.97;4993892;28;19918;-86
2024/03/06 06:45:19;;;;;;;;;;;;;;;7.26;100.00;100025.16;4994264;28;19929;-86
2024/03/06 06:47:45;;;;;;;;;;;;;;;7.22;100.00;100027.00;4992736;28;19924;-86
2024/03/06 06:50:11;;;;;;;;;;;;;;;7.23;100.00;100028.75;4976123;28;20012;-91
2024/03/06 06:52:37;;;;;;;;;;;;;;;7.23;100.00;100027.88;4993546;28;19918;-86
2024/03/06 06:55:02;;;;;;;;;;;;;;;7.24;100.00;100022.56;4992355;28;19968;-84
2024/03/06 06:57:27;;;;;;;;;;;;;;;7.25;100.00;100026.91;4993367;28;19917;-86
2024/03/06 06:59:52;;;;;;;;;;;;;;;7.27;100.00;100032.16;4993829;28;19996;-86
2024/03/06 07:02:18;;;;;;;;;;;;;;;7.28;100.00;100029.47;4993312;28;19917;-86
2024/03/06 07:04:43;;;;;;;;;;;;;;;7.31;100.00;100028.53;4992573;28;20284;-86
2024/03/06 07:07:09;;;;;;;;;;;;;;;7.31;100.00;100028.53;4993596;28;19914;-86
2024/03/06 07:09:34;;;;;;;;;;;;;;;7.30;100.00;100032.06;4991833;28;19921;-86
2024/03/06 07:12:00;;;;;;;;;;;;;;;7.27;100.00;100037.44;4993217;28;19925;-86
2024/03/06 07:14:25;;;;;;;;;;;;;;;7.28;100.00;100049.72;4975856;28;19917;-86
2024/03/06 07:16:50;;;;;;;;;;;;;;;7.28;100.00;100044.44;4993012;28;20009;-87
2024/03/06 07:19:16;;;;;;;;;;;;;;;7.28;100.00;100054.97;4993191;28;19924;-85
2024/03/06 07:21:42;;;;;;;;;;;;;;;7.28;100.00;100054.97;4992876;28;20029;-85
2024/03/06 07:24:07;;;;;;;;;;;;;;;7.28;100.00;100061.09;4992313;28;20008;-85
2024/03/06 07:26:32;;;;;;;;;;;;;;;7.31;100.00;100048.75;4992581;28;20005;-85
2024/03/06 07:28:58;;;;;;;;;;;;;;;7.30;100.00;100054.94;4993011;28;19925;-86
2024/03/06 07:31:24;;;;;;;;;;;;;;;7.31;100.00;100054.03;4992854;28;19918;-86
2024/03/06 07:33:49;;;;;;;;;;;;;;;7.32;100.00;100053.97;4992713;28;19957;-85
2024/03/06 07:36:16;;;;;;;;;;;;;;;7.34;100.00;100056.59;4992594;28;19932;-86
2024/03/06 07:38:41;;;;;;;;;;;;;;;7.34;100.00;100060.09;4992835;28;19925;-90
2024/03/06 07:41:06;;;;;;;;;;;;;;;7.35;100.00;100061.81;4991574;28;19922;-86
2024/03/06 07:43:32;;;;;;;;;;;;;;;7.35;100.00;100067.09;4992796;28;19926;-86
2024/03/06 07:45:57;;;;;;;;;;;;;;;7.37;100.00;100069.69;4992761;28;19922;-86
2024/03/06 07:48:22;;;;;;;;;;;;;;;7.39;100.00;100070.53;4992763;28;20008;-84
2024/03/06 07:50:47;;;;;;;;;;;;;;;7.42;100.00;100073.94;4992615;28;19965;-86
2024/03/06 07:53:12;;;;;;;;;;;;;;;7.41;100.00;100066.94;4975458;28;19922;-85
2024/03/06 07:55:38;;;;;;;;;;;;;;;7.45;100.00;100073.00;4991335;28;19917;-85
2024/03/06 07:58:04;;;;;;;;;;;;;;;7.50;100.00;100070.25;4992709;28;19922;-86
2024/03/06 08:00:31;;;;;;;;;;;;;;;7.49;100.00;100073.81;4992663;28;20061;-85
2024/03/06 09:01:19;;;;;;;;;;;;;;;7.79;100.00;100131.03;5416955;23;19992;-84
2024/03/06 09:03:45;;;;;;;;;;;;;;;7.84;100.00;100124.78;4994727;28;20000;-86
2024/03/06 09:06:10;;;;;;;;;;;;;;;7.87;100.00;100122.06;4995696;28;20024;-86
2024/03/06 09:08:36;;;;;;;;;;;;;;;7.82;100.00;100122.19;4978181;28;20332;-86
2024/03/06 09:11:01;;;;;;;;;;;;;;;7.81;100.00;100123.94;4995330;28;20356;-86
2024/03/06 09:14:12;;;;;;;;;;;;;;;7.85;100.00;100123.84;4995524;28;19928;-86
2024/03/06 09:16:31;;;;;;;;;;;;;;;7.84;100.00;100119.50;4990146;28;20351;-88
2024/03/06 09:18:56;;;;;;;;;;;;;;;7.85;100.00;100118.56;4995356;28;20024;-87
2024/03/06 09:21:22;;;;;;;;;;;;;;;7.87;100.00;100106.22;4995140;28;19914;-87
2024/03/06 09:23:51;;;;;;;;;;;;;;;7.89;100.00;100109.69;4977626;28;19926;-90
2024/03/06 09:26:16;;;;;;;;;;;;;;;7.94;100.00;100107.78;4994940;28;19945;-86
2024/03/06 09:28:41;;;;;;;;;;;;;;;7.91;100.00;100110.50;4994567;28;19918;-86
2024/03/06 09:31:06;;;;;;;;;;;;;;;7.93;100.00;100100.75;4993798;28;19956;-85
2024/03/06 09:33:32;;;;;;;;;;;;;;;7.91;100.00;100105.22;4995130;28;19918;-85
2024/03/06 09:35:58;;;;;;;;;;;;;;;7.98;100.00;100112.09;4977653;28;20436;-85
2024/03/06 09:38:23;;;;;;;;;;;;;;;7.98;100.00;100120.00;4994785;28;19918;-85
2024/03/06 09:40:51;;;;;;;;;;;;;;;7.94;100.00;100111.28;4994926;28;19924;-85
2024/03/06 09:43:16;;;;;;;;;;;;;;;8.16;100.00;100122.13;4994996;28;20012;-86
2024/03/06 09:45:43;;;;;;;;;;;;;;;8.67;100.00;100109.28;4993483;28;20012;-85
2024/03/06 09:48:08;;;;;;;;;;;;;;;9.19;100.00;100112.06;4977024;28;20385;-81
2024/03/06 09:50:37;;;;;;;;;;;;;;;10.12;100.00;100118.63;4994809;28;19957;-80
2024/03/06 09:53:05;;;;;;;;;;;;;;;11.40;100.00;100103.16;4994763;28;19925;-85
2024/03/06 09:55:31;;;;;;;;;;;;;;;11.78;100.00;100106.00;4993995;28;20393;-85
2024/03/06 09:57:56;;;;;;;;;;;;;;;11.87;100.00;100111.84;4994012;28;19922;-82
2024/03/06 10:00:21;;;;;;;;;;;;;;;10.56;100.00;100117.09;4993487;28;19925;-86
2024/03/06 10:03:13;;;;;;;;;;;;;;;9.70;100.00;100121.88;4993798;28;19928;-85
2024/03/06 10:05:38;;;;;;;;;;;;;;;9.27;100.00;100129.44;4972625;28;19929;-83
2024/03/06 10:08:04;;;;;;;;;;;;;;;9.06;100.00;100128.34;4993702;28;20009;-88
2024/03/06 10:10:30;;;;;;;;;;;;;;;8.95;100.00;100129.56;4993474;28;20016;-85
2024/03/06 10:12:57;;;;;;;;;;;;;;;8.83;100.00;100126.41;4992534;28;19918;-85
2024/03/06 10:15:22;;;;;;;;;;;;;;;8.79;100.00;100132.69;4974566;28;20380;-89
2024/03/06 10:17:48;;;;;;;;;;;;;;;8.69;100.00;100133.88;4993149;28;19922;-85
2024/03/06 10:20:24;;;;;;;;;;;;;;;8.67;100.00;100136.56;4975820;28;19922;-86
2024/03/06 10:22:53;;;;;;;;;;;;;;;8.62;100.00;100145.53;4990969;28;20040;-84
2024/03/06 10:25:19;;;;;;;;;;;;;;;8.60;100.00;100139.41;4975445;28;19926;-86
2024/03/06 10:27:45;;;;;;;;;;;;;;;8.57;100.00;100139.50;4984808;28;19961;-83
2024/03/06 10:30:13;;;;;;;;;;;;;;;8.52;100.00;100137.00;4991231;28;20019;-83
2024/03/06 10:32:39;;;;;;;;;;;;;;;8.54;100.00;100137.84;4992956;28;19917;-87
2024/03/06 10:35:06;;;;;;;;;;;;;;;8.48;100.00;100135.38;4975572;28;20284;-86
2024/03/06 10:37:31;;;;;;;;;;;;;;;8.51;100.00;100136.13;4975660;28;19918;-88
2024/03/06 10:39:58;;;;;;;;;;;;;;;8.48;100.00;100132.72;4992771;28;19945;-88
2024/03/06 10:42:26;;;;;;;;;;;;;;;8.50;100.00;100137.06;4975584;28;19918;-83
2024/03/06 10:44:52;;;;;;;;;;;;;;;8.47;100.00;100131.88;4990708;28;20280;-85
2024/03/06 10:47:18;;;;;;;;;;;;;;;8.47;100.00;100128.34;4975355;28;19917;-88
2024/03/06 10:49:44;;;;;;;;;;;;;;;8.49;100.00;100135.31;4992816;28;19921;-85
2024/03/06 10:52:10;;;;;;;;;;;;;;;8.46;100.00;100135.41;4993023;28;20283;-84
2024/03/06 10:54:38;;;;;;;;;;;;;;;8.50;100.00;100139.69;4992834;28;19914;-83
2024/03/06 10:57:04;;;;;;;;;;;;;;;8.47;100.00;100139.78;4992128;28;19921;-84
2024/03/06 10:59:30;;;;;;;;;;;;;;;8.48;100.00;100133.59;4992082;28;19921;-85
2024/03/06 11:01:55;;;;;;;;;;;;;;;8.48;100.00;100135.38;4925482;28;1897033;-85
2024/03/06 11:04:22;;;;;;;;;;;;;;;8.48;100.00;100144.16;5008329;28;20292;-86
2024/03/06 11:06:48;;;;;;;;;;;;;;;8.48;100.00;100132.72;4976700;28;19936;-84
2024/03/06 11:09:15;;;;;;;;;;;;;;;8.43;100.00;100143.41;4975965;28;19921;-84
2024/03/06 11:11:47;;;;;;;;;;;;;;;8.47;100.00;100141.53;4993389;28;19925;-83
2024/03/06 11:14:13;;;;;;;;;;;;;;;8.43;100.00;100146.06;4992231;28;20321;-86
2024/03/06 11:16:56;;;;;;;;;;;;;;;8.45;100.00;100138.94;4974687;28;19931;-87
2024/03/06 11:19:22;;;;;;;;;;;;;;;8.43;100.00;100142.53;4993284;28;19918;-88
2024/03/06 11:21:48;;;;;;;;;;;;;;;8.44;100.00;100139.88;4993138;28;19928;-88
2024/03/06 11:24:19;;;;;;;;;;;;;;;8.47;100.00;100142.44;4993244;28;19918;-90
2024/03/06 11:26:47;;;;;;;;;;;;;;;8.47;100.00;100139.78;4974637;28;19925;-87
2024/03/06 11:29:15;;;;;;;;;;;;;;;8.47;100.00;100141.53;4975658;28;19921;-85
2024/03/06 11:31:55;;;;;;;;;;;;;;;8.45;100.00;100133.66;4974165;28;20316;-81
2024/03/06 11:34:24;;;;;;;;;;;;;;;8.47;100.00;100133.63;4992845;28;19922;-82
2024/03/06 11:36:53;;;;;;;;;;;;;;;8.48;100.00;100138.88;4975350;28;20284;-82
2024/03/06 11:39:19;;;;;;;;;;;;;;;8.50;100.00;100138.81;4992689;28;19924;-87
2024/03/06 11:41:49;;;;;;;;;;;;;;;8.47;100.00;100134.50;4975494;28;19913;-85
2024/03/06 11:44:15;;;;;;;;;;;;;;;8.48;100.00;100125.66;4975248;28;20004;-83
2024/03/06 11:47:03;;;;;;;;;;;;;;;8.47;100.00;100131.88;4991424;28;20372;-82
2024/03/06 11:49:29;;;;;;;;;;;;;;;8.51;100.00;100135.28;4974486;28;19980;-86
2024/03/06 11:51:59;;;;;;;;;;;;;;;8.51;100.00;100130.84;4991040;28;19918;-83
2024/03/06 11:54:26;;;;;;;;;;;;;;;8.49;100.00;100130.03;4992796;28;19961;-86
2024/03/06 11:56:55;;;;;;;;;;;;;;;8.49;100.00;100137.97;4975145;28;19921;-85
2024/03/06 11:59:22;;;;;;;;;;;;;;;8.50;100.00;100134.41;4992921;28;19918;-83
2024/03/06 12:01:47;;;;;;;;;;;;;;;8.53;100.00;100130.81;4988944;28;20008;-84
2024/03/06 12:04:13;;;;;;;;;;;;;;;8.51;100.00;100130.00;4992530;28;20428;-87
2024/03/06 12:06:38;;;;;;;;;;;;;;;8.53;100.00;100139.59;4992782;28;19928;-88
2024/03/06 12:09:04;;;;;;;;;;;;;;;8.51;100.00;100141.41;4974925;28;19918;-86
2024/03/06 12:11:30;;;;;;;;;;;;;;;8.53;100.00;100131.66;4992597;28;19921;-84
2024/03/06 12:13:56;;;;;;;;;;;;;;;8.53;100.00;100131.66;4992346;28;19972;-84
2024/03/06 12:16:21;;;;;;;;;;;;;;;8.52;100.00;100127.31;4991431;28;19949;-87
2024/03/06 12:18:53;;;;;;;;;;;;;;;8.53;100.00;100133.44;4973059;28;19928;-86
2024/03/06 12:21:18;;;;;;;;;;;;;;;8.52;100.00;100137.88;4991577;28;19922;-86
2024/03/06 12:23:44;;;;;;;;;;;;;;;8.54;100.00;100133.41;4992412;28;19922;-82
2024/03/06 12:26:10;;;;;;;;;;;;;;;8.53;100.00;100130.81;4989966;28;19925;-83
2024/03/06 12:28:39;;;;;;;;;;;;;;;8.57;100.00;100134.22;4992438;28;20381;-81
2024/03/06 12:31:05;;;;;;;;;;;;;;;8.57;100.00;100128.94;4991183;28;20320;-86
2024/03/06 12:33:31;;;;;;;;;;;;;;;8.57;100.00;100128.94;4974886;28;19933;-86
2024/03/06 12:36:10;;;;;;;;;;;;;;;8.58;100.00;100123.59;4992191;28;20012;-86
2024/03/06 12:38:35;;;;;;;;;;;;;;;8.58;100.00;100125.41;4992126;28;20443;-85
2024/03/06 12:41:00;;;;;;;;;;;;;;;8.59;100.00;100127.13;4992382;28;19918;-82
2024/03/06 12:43:26;;;;;;;;;;;;;;;8.59;100.00;100122.72;4992326;28;20305;-88
2024/03/06 12:45:56;;;;;;;;;;;;;;;8.60;100.00;100120.94;4991055;28;20008;-89
2024/03/06 12:48:21;;;;;;;;;;;;;;;8.59;100.00;100122.72;4991593;28;20068;-83
2024/03/06 12:50:51;;;;;;;;;;;;;;;8.59;100.00;100116.56;4992262;28;19973;-91
2024/03/06 12:53:16;;;;;;;;;;;;;;;8.59;100.00;100121.84;4992228;28;20384;-85
2024/03/06 12:55:45;;;;;;;;;;;;;;;8.59;100.00;100117.44;4992338;28;19937;-87
2024/03/06 12:58:14;;;;;;;;;;;;;;;8.62;100.00;100119.13;4974701;28;19929;-89
2024/03/06 13:00:40;;;;;;;;;;;;;;;8.62;100.00;100114.69;4990841;28;20399;-88
2024/03/06 13:03:05;;;;;;;;;;;;;;;8.64;100.00;100107.59;4994138;28;19933;-90
2024/03/06 13:05:31;;;;;;;;;;;;;;;8.64;100.00;100112.00;4995826;28;19918;-86
2024/03/06 13:07:57;;;;;;;;;;;;;;;8.68;100.00;100108.34;4978292;28;19922;-90
2024/03/06 13:10:22;;;;;;;;;;;;;;;8.64;100.00;100106.72;4977943;28;20375;-85
2024/03/06 13:12:47;;;;;;;;;;;;;;;8.65;100.00;100105.81;4995411;28;19922;-81
2024/03/06 13:15:13;;;;;;;;;;;;;;;8.65;100.00;100106.69;4976568;28;19917;-86
2024/03/06 13:17:39;;;;;;;;;;;;;;;8.64;100.00;100107.59;4995701;28;20081;-87
2024/03/06 13:20:09;;;;;;;;;;;;;;;8.65;100.00;100105.81;4977804;28;20460;-82
2024/03/06 13:22:34;;;;;;;;;;;;;;;8.66;100.00;100104.91;4994717;28;20296;-83
2024/03/06 13:25:08;;;;;;;;;;;;;;;8.65;100.00;100100.53;4995154;28;19922;-86
2024/03/06 13:27:33;;;;;;;;;;;;;;;8.66;100.00;100096.97;5009740;28;19920;-84
2024/03/06 13:30:02;;;;;;;;;;;;;;;8.66;100.00;100096.97;4993959;28;20017;-90
2024/03/06 13:32:28;;;;;;;;;;;;;;;8.64;100.00;100097.03;4995748;28;20262;-91
2024/03/06 13:34:54;;;;;;;;;;;;;;;8.66;100.00;100096.97;4977576;28;20320;-89
2024/03/06 13:37:22;;;;;;;;;;;;;;;8.66;100.00;100105.78;4976919;28;19929;-87
2024/03/06 13:40:02;;;;;;;;;;;;;;;8.64;100.00;100093.53;4978055;28;19969;-93
2024/03/06 13:42:59;;;;;;;;;;;;;;;8.64;100.00;100097.03;4976759;28;19933;-91
2024/03/06 13:45:25;;;;;;;;;;;;;;;8.63;100.00;100100.59;4969092;28;20017;-86
2024/03/06 13:50:50;;;;;;;;;;;;;;;8.65;100.00;100103.19;4991997;28;19980;-89
2024/03/06 13:53:17;;;;;;;;;;;;;;;8.66;100.00;100102.25;4994865;28;19921;-92
2024/03/06 13:55:43;;;;;;;;;;;;;;;8.65;100.00;100111.97;4977504;28;19917;-88
2024/03/06 13:58:08;;;;;;;;;;;;;;;8.68;100.00;100114.53;4977154;28;19925;-88
2024/03/06 14:00:38;;;;;;;;;;;;;;;8.70;100.00;100111.84;4975978;28;19975;-90
2024/03/06 14:03:06;;;;;;;;;;;;;;;8.68;100.00;100111.88;4994264;28;19922;-90
2024/03/06 14:05:45;;;;;;;;;;;;;;;8.69;100.00;100110.09;4994747;28;19922;-91
2024/03/06 14:08:55;;;;;;;;;;;;;;;8.68;100.00;100106.59;4992044;28;19972;-89
2024/03/06 14:11:21;;;;;;;;;;;;;;;8.70;100.00;100112.69;4976554;28;20284;-88
2024/03/06 14:13:47;;;;;;;;;;;;;;;8.69;100.00;100108.31;4975233;28;19925;-87
2024/03/06 14:16:12;;;;;;;;;;;;;;;8.69;100.00;100110.94;4993092;28;19918;-86
2024/03/06 14:18:38;;;;;;;;;;;;;;;8.73;100.00;100114.38;4994597;28;20591;-89
2024/03/06 14:21:03;;;;;;;;;;;;;;;8.73;100.00;100115.25;4976450;28;20369;-83
2024/03/06 14:23:31;;;;;;;;;;;;;;;8.75;100.00;100117.84;4994288;28;19926;-81
2024/03/06 14:25:57;;;;;;;;;;;;;;;8.73;100.00;100119.66;4994168;28;19924;-83
2024/03/06 14:28:22;;;;;;;;;;;;;;;8.71;100.00;100125.00;4993954;28;19930;-90
2024/03/06 14:30:47;;;;;;;;;;;;;;;8.74;100.00;100118.75;4991870;28;19922;-84
2024/03/06 14:33:15;;;;;;;;;;;;;;;8.71;100.00;100122.34;4994185;28;19921;-85
2024/03/06 14:35:41;;;;;;;;;;;;;;;8.73;100.00;100119.66;5008519;28;19922;-92
2024/03/06 14:38:06;;;;;;;;;;;;;;;8.74;100.00;100113.44;4976090;28;20012;-86
2024/03/06 14:40:33;;;;;;;;;;;;;;;8.73;100.00;100117.03;4993769;28;20245;-83
2024/03/06 14:42:58;;;;;;;;;;;;;;;8.76;100.00;100119.56;4992904;28;19921;-87
2024/03/06 14:45:24;;;;;;;;;;;;;;;8.77;100.00;100129.22;4992320;28;19992;-85
2024/03/06 14:47:49;;;;;;;;;;;;;;;8.78;100.00;100130.97;4976505;28;20005;-82
2024/03/06 14:50:29;;;;;;;;;;;;;;;8.79;100.00;100127.41;4976194;28;19925;-85
2024/03/06 14:52:57;;;;;;;;;;;;;;;8.78;100.00;100124.81;4975771;28;19930;-89
2024/03/06 14:55:23;;;;;;;;;;;;;;;8.78;100.00;100120.38;5008090;28;19924;-89
2024/03/06 14:57:49;;;;;;;;;;;;;;;8.79;100.00;100119.50;4993613;28;19917;-84
2024/03/06 15:00:17;;;;;;;;;;;;;;;8.80;100.00;100121.19;4992161;28;19960;-85
2024/03/06 15:02:42;;;;;;;;;;;;;;;8.82;100.00;100119.41;4992668;28;19926;-84
2024/03/06 15:05:11;;;;;;;;;;;;;;;8.83;100.00;100114.97;4993147;28;19922;-86
2024/03/06 15:07:38;;;;;;;;;;;;;;;8.81;100.00;100117.66;4993329;28;20349;-90
2024/03/06 15:10:08;;;;;;;;;;;;;;;8.83;100.00;100115.81;4993732;28;19918;-90
2024/03/06 15:12:34;;;;;;;;;;;;;;;8.83;100.00;100126.41;4975371;28;19922;-91
2024/03/06 15:15:00;;;;;;;;;;;;;;;8.83;100.00;100118.47;4992028;28;19936;-88
2024/03/06 15:17:25;;;;;;;;;;;;;;;8.87;100.00;100125.41;4993140;28;19918;-88
2024/03/06 15:19:51;;;;;;;;;;;;;;;8.86;100.00;100117.53;4992181;28;19971;-86
2024/03/06 15:22:16;;;;;;;;;;;;;;;8.86;100.00;100120.16;4975597;28;20296;-83
2024/03/06 15:24:44;;;;;;;;;;;;;;;8.87;100.00;100127.16;4992123;28;19918;-86
2024/03/06 15:27:12;;;;;;;;;;;;;;;8.87;100.00;100124.50;4992842;28;19917;-86
2024/03/06 15:29:37;;;;;;;;;;;;;;;8.86;100.00;100134.22;4975509;28;19925;-86
2024/03/06 15:32:03;;;;;;;;;;;;;;;8.88;100.00;100127.09;4991996;28;20412;-85
2024/03/06 15:34:28;;;;;;;;;;;;;;;8.88;100.00;100129.75;4992898;28;19965;-89
2024/03/06 15:36:54;;;;;;;;;;;;;;;8.88;100.00;100126.25;4976021;28;19964;-85
2024/03/06 15:39:19;;;;;;;;;;;;;;;8.91;100.00;100129.66;4992666;28;19918;-88
2024/03/06 15:41:44;;;;;;;;;;;;;;;8.89;100.00;100120.94;4993529;28;19929;-90
2024/03/06 15:44:10;;;;;;;;;;;;;;;8.91;100.00;100123.53;4992494;28;19925;-88
2024/03/06 15:46:35;;;;;;;;;;;;;;;8.92;100.00;100125.25;4974377;28;19922;-91
2024/03/06 15:49:06;;;;;;;;;;;;;;;8.93;100.00;100120.84;4992730;28;20255;-85
2024/03/06 15:51:31;;;;;;;;;;;;;;;8.95;100.00;100125.16;4992672;28;19969;-89
2024/03/06 15:53:57;;;;;;;;;;;;;;;8.94;100.00;100122.56;4992809;28;19965;-88
2024/03/06 15:56:22;;;;;;;;;;;;;;;8.95;100.00;100129.56;4992662;28;19922;-85
2024/03/06 15:58:47;;;;;;;;;;;;;;;8.94;100.00;100127.84;4975409;28;19922;-85
2024/03/06 16:01:13;;;;;;;;;;;;;;;8.97;100.00;100133.06;4991338;28;20425;-87
2024/03/06 16:03:38;;;;;;;;;;;;;;;8.94;100.00;100127.84;4992322;28;20258;-87
2024/03/06 16:06:03;;;;;;;;;;;;;;;8.97;100.00;100127.78;4992556;28;20385;-85
2024/03/06 16:08:31;;;;;;;;;;;;;;;9.00;100.00;100127.66;4992396;28;19924;-89
2024/03/06 16:10:58;;;;;;;;;;;;;;;8.98;100.00;100134.75;4992051;28;19918;-90
2024/03/06 16:13:23;;;;;;;;;;;;;;;9.00;100.00;100133.81;4992001;28;19976;-86
2024/03/06 16:15:51;;;;;;;;;;;;;;;9.01;100.00;100138.16;4991405;28;19914;-88
2024/03/06 16:18:19;;;;;;;;;;;;;;;9.00;100.00;100141.75;4992314;28;19918;-89
2024/03/06 16:20:44;;;;;;;;;;;;;;;9.03;100.00;100138.13;4992604;28;19917;-89
2024/03/06 16:23:10;;;;;;;;;;;;;;;9.00;100.00;100144.38;4992346;28;19924;-86
2024/03/06 16:25:35;;;;;;;;;;;;;;;9.01;100.00;100139.97;4992390;28;19972;-86
2024/03/06 16:28:01;;;;;;;;;;;;;;;9.01;100.00;100140.81;4992290;28;19941;-86
2024/03/06 16:30:26;;;;;;;;;;;;;;;9.03;100.00;100148.69;4990209;28;19922;-87
2024/03/06 16:32:51;;;;;;;;;;;;;;;9.04;100.00;100145.16;4975058;28;20283;-86
2024/03/06 16:35:17;;;;;;;;;;;;;;;9.06;100.00;100149.50;5006508;28;19913;-90
2024/03/06 16:37:42;;;;;;;;;;;;;;;9.03;100.00;100146.94;4995603;28;19980;-85
2024/03/06 16:40:10;;;;;;;;;;;;;;;9.05;100.00;100146.91;4995381;28;20416;-88
2024/03/06 16:42:36;;;;;;;;;;;;;;;9.08;100.00;100152.09;4995918;28;19948;-88
2024/03/06 16:45:01;;;;;;;;;;;;;;;9.07;100.00;100153.84;4994801;28;19922;-83
2024/03/06 16:47:26;;;;;;;;;;;;;;;9.08;100.00;100154.72;4978690;28;19914;-90
2024/03/06 16:49:51;;;;;;;;;;;;;;;9.08;100.00;100154.72;4995881;28;20365;-88
2024/03/06 16:52:17;;;;;;;;;;;;;;;9.07;100.00;100158.28;4995862;28;19968;-88
2024/03/06 16:54:42;;;;;;;;;;;;;;;9.11;100.00;100161.69;4995812;28;19925;-88
2024/03/06 16:57:10;;;;;;;;;;;;;;;9.10;100.00;100166.13;4978367;28;19922;-86
2024/03/06 16:59:36;;;;;;;;;;;;;;;9.10;100.00;100168.75;4995672;28;19922;-87
2024/03/06 17:02:02;;;;;;;;;;;;;;;9.13;100.00;100163.38;4994355;28;19973;-87
2024/03/06 17:04:27;;;;;;;;;;;;;;;9.11;100.00;100170.50;4978184;28;19949;-87
2024/03/06 17:06:52;;;;;;;;;;;;;;;9.12;100.00;100164.28;4995614;28;19918;-85
2024/03/06 17:09:18;;;;;;;;;;;;;;;9.13;100.00;100166.03;4995701;28;20276;-87
2024/03/06 17:11:43;;;;;;;;;;;;;;;9.14;100.00;100166.88;4995559;28;19918;-87
2024/03/06 17:14:09;;;;;;;;;;;;;;;9.15;100.00;100169.47;4995818;28;19922;-86
2024/03/06 17:16:34;;;;;;;;;;;;;;;9.15;100.00;100173.91;4994241;28;19918;-86
2024/03/06 17:19:02;;;;;;;;;;;;;;;9.14;100.00;100178.31;4994637;28;19969;-86
2024/03/06 17:21:28;;;;;;;;;;;;;;;9.15;100.00;100177.41;4977729;28;19929;-85
2024/03/06 17:23:53;;;;;;;;;;;;;;;9.15;100.00;100187.97;4977877;28;19936;-87
2024/03/06 17:26:19;;;;;;;;;;;;;;;9.16;100.00;100186.19;4995442;28;19961;-85
2024/03/06 17:28:46;;;;;;;;;;;;;;;9.18;100.00;100187.03;4995269;28;19918;-88
2024/03/06 17:31:11;;;;;;;;;;;;;;;9.18;100.00;100194.97;4993208;28;19924;-87
2024/03/06 17:33:37;;;;;;;;;;;;;;;9.17;100.00;100194.06;4994964;28;20004;-89
2024/03/06 17:36:02;;;;;;;;;;;;;;;9.20;100.00;100193.13;4995168;28;19922;-87
2024/03/06 17:38:29;;;;;;;;;;;;;;;9.19;100.00;100196.69;4995204;28;19929;-88
2024/03/06 17:40:54;;;;;;;;;;;;;;;9.19;100.00;100194.91;4977998;28;19922;-89
2024/03/06 17:43:20;;;;;;;;;;;;;;;9.20;100.00;100196.63;4995151;28;19972;-87
2024/03/06 17:45:45;;;;;;;;;;;;;;;9.21;100.00;100195.72;4976489;28;20380;-87
2024/03/06 17:48:10;;;;;;;;;;;;;;;9.20;100.00;100201.06;4994344;28;19922;-90
2024/03/06 17:50:38;;;;;;;;;;;;;;;9.21;100.00;100201.03;4994730;28;20289;-88
2024/03/06 17:53:09;;;;;;;;;;;;;;;9.20;100.00;100199.28;4994198;28;20012;-91
2024/03/06 17:55:37;;;;;;;;;;;;;;;9.23;100.00;100204.47;4977303;28;19972;-90
2024/03/06 17:58:02;;;;;;;;;;;;;;;9.22;100.00;100200.13;4994826;28;20437;-89
2024/03/06 18:00:27;;;;;;;;;;;;;;;9.23;100.00;100199.19;4976174;28;19934;-90
2024/03/06 18:02:55;;;;;;;;;;;;;;;9.24;100.00;100205.34;4977398;28;20250;-91
2024/03/06 18:05:21;;;;;;;;;;;;;;;9.24;100.00;100200.94;4994511;28;19973;-88
2024/03/06 18:07:46;;;;;;;;;;;;;;;9.24;100.00;100202.72;4995136;28;20400;-89
2024/03/06 18:10:12;;;;;;;;;;;;;;;9.26;100.00;100211.47;4977672;28;19925;-89
2024/03/06 18:12:40;;;;;;;;;;;;;;;9.25;100.00;100207.97;4994585;28;20061;-88
2024/03/06 18:15:05;;;;;;;;;;;;;;;9.29;100.00;100210.50;4992924;28;19922;-90
2024/03/06 18:17:30;;;;;;;;;;;;;;;9.29;100.00;100210.50;4976854;28;20266;-89
2024/03/06 18:19:56;;;;;;;;;;;;;;;9.30;100.00;100209.56;4977004;28;19928;-89
2024/03/06 18:22:21;;;;;;;;;;;;;;;9.30;100.00;100204.28;4994690;28;20012;-92
2024/03/06 18:24:46;;;;;;;;;;;;;;;9.32;100.00;100213.03;4994264;28;20285;-91
2024/03/06 18:27:12;;;;;;;;;;;;;;;9.32;100.00;100205.09;4994338;28;20364;-89
2024/03/06 18:29:45;;;;;;;;;;;;;;;9.34;100.00;100208.59;4994403;28;19968;-89
2024/03/06 18:32:12;;;;;;;;;;;;;;;9.33;100.00;100218.28;4993598;28;19972;-92
2024/03/06 18:34:50;;;;;;;;;;;;;;;;;;;;;
2024/03/06 18:37:16;;;;;;;;;;;;;;;9.33;100.00;100207.69;4993932;28;19917;-92
2024/03/06 18:39:44;;;;;;;;;;;;;;;9.35;100.00;100212.94;4976678;28;20017;-91
2024/03/06 18:42:11;;;;;;;;;;;;;;;9.35;100.00;100215.59;4995080;28;19988;-90
2024/03/06 18:44:39;;;;;;;;;;;;;;;9.35;100.00;100215.59;4972131;28;19918;-89
2024/03/06 18:47:10;;;;;;;;;;;;;;;9.36;100.00;100214.69;4971106;28;20004;-90
2024/03/06 18:49:43;;;;;;;;;;;;;;;9.38;100.00;100212.84;4972083;28;19941;-89
2024/03/06 18:52:14;;;;;;;;;;;;;;;9.38;100.00;100208.44;4971441;28;19929;-91
2024/03/06 18:54:39;;;;;;;;;;;;;;;9.38;100.00;100216.38;4972321;28;20006;-82
2024/03/06 18:57:08;;;;;;;;;;;;;;;9.39;100.00;100209.28;4972116;28;19918;-90
2024/03/06 18:59:40;;;;;;;;;;;;;;;9.41;100.00;100212.75;4971516;28;20497;-90
2024/03/06 19:02:06;;;;;;;;;;;;;;;9.40;100.00;100211.03;4970546;28;19922;-87
2024/03/06 19:04:34;;;;;;;;;;;;;;;9.42;100.00;100209.19;4972120;28;20101;-91
2024/03/06 19:06:59;;;;;;;;;;;;;;;9.40;100.00;100211.03;4971196;28;20113;-88
2024/03/06 19:09:24;;;;;;;;;;;;;;;9.41;100.00;100215.41;4972024;28;20430;-90
2024/03/06 19:11:52;;;;;;;;;;;;;;;9.41;100.00;100215.41;4975512;28;19926;-90
2024/03/06 19:14:17;;;;;;;;;;;;;;;9.43;100.00;100210.94;4976018;28;19925;-87
2024/03/06 19:16:42;;;;;;;;;;;;;;;9.45;100.00;100219.69;4984985;28;19918;-89
2024/03/06 19:19:08;;;;;;;;;;;;;;;9.44;100.00;100221.47;4993198;28;19921;-89
2024/03/06 19:21:36;;;;;;;;;;;;;;;9.44;100.00;100221.47;4989283;23;20324;-91
2024/03/06 19:24:01;;;;;;;;;;;;;;;9.47;100.00;100217.84;4975510;28;20396;-89
2024/03/06 19:26:28;;;;;;;;;;;;;;;9.46;100.00;100216.09;4987355;28;19918;-92
2024/03/06 19:28:54;;;;;;;;;;;;;;;9.45;100.00;100217.03;4992158;28;19973;-87
2024/03/06 19:31:19;;;;;;;;;;;;;;;9.47;100.00;100209.91;4991980;28;19969;-90
2024/03/06 19:33:44;;;;;;;;;;;;;;;9.47;100.00;100217.84;4976051;28;20020;-91
2024/03/06 19:36:10;;;;;;;;;;;;;;;9.49;100.00;100216.00;4992534;28;19914;-92
2024/03/06 19:38:37;;;;;;;;;;;;;;;9.50;100.00;100216.91;4992910;28;19922;-91
2024/03/06 19:41:03;;;;;;;;;;;;;;;9.51;100.00;100216.84;4990306;28;19983;-89
2024/03/06 19:43:35;;;;;;;;;;;;;;;9.49;100.00;100216.00;4987988;28;20019;-91
2024/03/06 19:46:10;;;;;;;;;;;;;;;9.50;100.00;100215.13;4991354;28;19940;-92
2024/03/06 19:48:35;;;;;;;;;;;;;;;9.49;100.00;100223.94;4993073;28;20468;-92